Time;durP1;ratioP1;P1;durP2;ratioP2;P2;SDS_P1;SDS_P2;PMS_P1;PMS_P2;Temp;Humidity;BMP_temperature;BMP_pressure;BME280_temperature;BME280_humidity;BME280_pressure;Samples;Min_cycle;Max_cycle;Signal;HPM_P1;HPM_P2
2022/08/27 00:02:18;;;;;;;3.22;2.10;;;;;;;;;;4995908;28;92434;-73
2022/08/27 00:04:45;;;;;;;6.03;2.95;;;;;;;;;;4994586;28;92867;-73
2022/08/27 00:07:12;;;;;;;5.57;1.85;;;;;;;;;;4992496;28;93332;-73
2022/08/27 00:09:39;;;;;;;9.13;2.25;;;;;;;;;;4994437;28;91714;-73
2022/08/27 00:12:07;;;;;;;8.02;2.13;;;;;;;;;;4994845;28;92938;-73
2022/08/27 00:14:34;;;;;;;2.60;1.40;;;;;;;;;;5003011;28;94227;-73
2022/08/27 00:17:01;;;;;;;6.15;1.92;;;;;;;;;;4993200;28;94890;-73
2022/08/27 00:19:27;;;;;;;9.88;2.70;;;;;;;;;;4996212;28;93313;-73
2022/08/27 00:21:54;;;;;;;4.88;1.95;;;;;;;;;;4998023;28;92536;-73
2022/08/27 00:24:21;;;;;;;8.63;2.30;;;;;;;;;;4998371;28;93285;-73
2022/08/27 00:26:49;;;;;;;4.35;2.10;;;;;;;;;;4997420;28;93320;-73
2022/08/27 00:29:15;;;;;;;7.13;2.00;;;;;;;;;;4996745;28;92448;-73
2022/08/27 00:31:41;;;;;;;7.78;2.00;;;;;;;;;;4997234;28;93124;-73
2022/08/27 00:34:08;;;;;;;6.68;2.00;;;;;;;;;;5003753;28;92703;-73
2022/08/27 00:36:38;;;;;;;4.70;2.58;;;;;;;;;;5000159;28;92402;-73
2022/08/27 00:39:05;;;;;;;6.50;2.30;;;;;;;;;;4997388;28;93268;-73
2022/08/27 00:41:32;;;;;;;6.35;1.92;;;;;;;;;;4998564;28;96089;-73
2022/08/27 00:43:59;;;;;;;7.45;2.17;;;;;;;;;;5000139;28;96280;-73
2022/08/27 00:46:27;;;;;;;7.57;2.17;;;;;;;;;;4996788;28;94341;-73
2022/08/27 00:48:55;;;;;;;5.68;1.95;;;;;;;;;;5002491;28;92800;-73
2022/08/27 00:51:23;;;;;;;5.70;2.10;;;;;;;;;;5003119;28;92958;-73
2022/08/27 00:53:50;;;;;;;7.10;2.42;;;;;;;;;;4997861;28;94192;-73
2022/08/27 00:56:20;;;;;;;4.28;2.00;;;;;;;;;;4999055;28;93233;-73
2022/08/27 00:58:48;;;;;;;5.45;2.75;;;;;;;;;;4994217;28;93876;-73
2022/08/27 01:01:16;;;;;;;6.72;2.30;;;;;;;;;;5002895;28;92513;-73
2022/08/27 01:03:45;;;;;;;9.60;2.58;;;;;;;;;;5008735;28;93521;-73
2022/08/27 01:06:12;;;;;;;8.50;2.10;;;;;;;;;;4994691;28;95798;-73
2022/08/27 01:08:44;;;;;;;9.02;2.50;;;;;;;;;;4994002;28;92883;-73
2022/08/27 01:11:11;;;;;;;5.78;1.77;;;;;;;;;;4996477;28;93112;-73
2022/08/27 01:13:41;;;;;;;8.80;2.08;;;;;;;;;;4996682;28;93192;-74
2022/08/27 01:16:32;;;;;;;16.50;2.40;;;;;;;;;;4997532;28;93278;-73
2022/08/27 01:18:59;;;;;;;5.13;1.85;;;;;;;;;;5005735;28;93051;-73
2022/08/27 01:21:30;;;;;;;9.40;2.75;;;;;;;;;;4997652;28;93173;-73
2022/08/27 01:24:02;;;;;;;4.28;1.92;;;;;;;;;;4996425;28;93888;-73
2022/08/27 01:26:29;;;;;;;7.38;2.30;;;;;;;;;;4999176;28;96122;-73
2022/08/27 01:28:56;;;;;;;8.48;2.38;;;;;;;;;;4997726;28;92700;-73
2022/08/27 01:31:23;;;;;;;4.47;1.70;;;;;;;;;;4993431;28;94956;-73
2022/08/27 01:34:00;;;;;;;4.47;1.92;;;;;;;;;;4995924;28;94003;-73
2022/08/27 01:36:27;;;;;;;4.90;2.15;;;;;;;;;;4997828;28;94166;-73
2022/08/27 01:38:54;;;;;;;4.68;2.03;;;;;;;;;;4996284;28;93133;-73
2022/08/27 01:41:23;;;;;;;7.00;2.13;;;;;;;;;;5002812;28;94235;-73
2022/08/27 01:43:50;;;;;;;5.07;2.00;;;;;;;;;;5000667;28;94029;-73
2022/08/27 01:46:23;;;;;;;5.38;2.22;;;;;;;;;;4996187;28;93411;-73
2022/08/27 01:48:50;;;;;;;7.60;3.25;;;;;;;;;;4997909;28;91796;-74
2022/08/27 01:51:16;;;;;;;5.40;2.30;;;;;;;;;;4996046;28;94063;-73
2022/08/27 01:53:43;;;;;;;5.28;2.45;;;;;;;;;;4997850;28;93255;-73
2022/08/27 01:56:10;;;;;;;6.38;2.10;;;;;;;;;;5003620;28;94926;-73
2022/08/27 01:58:37;;;;;;;4.18;2.17;;;;;;;;;;4999864;28;96353;-73
2022/08/27 02:01:06;;;;;;;5.45;2.47;;;;;;;;;;5000093;28;93188;-73
2022/08/27 02:03:35;;;;;;;4.07;2.00;;;;;;;;;;5001150;28;92450;-73
2022/08/27 02:06:05;;;;;;;5.20;2.10;;;;;;;;;;4995119;28;94139;-73
2022/08/27 02:08:32;;;;;;;7.15;2.10;;;;;;;;;;4997115;28;92424;-73
2022/08/27 02:10:59;;;;;;;6.93;1.83;;;;;;;;;;4995866;28;94185;-73
2022/08/27 02:13:25;;;;;;;5.15;2.22;;;;;;;;;;4995663;28;92726;-73
2022/08/27 02:15:52;;;;;;;7.68;2.08;;;;;;;;;;5001206;28;92461;-73
2022/08/27 02:18:18;;;;;;;5.80;2.30;;;;;;;;;;4995891;28;93915;-73
2022/08/27 02:20:46;;;;;;;7.43;2.10;;;;;;;;;;4992920;28;96540;-73
2022/08/27 02:23:13;;;;;;;4.80;2.30;;;;;;;;;;4996923;28;92449;-73
2022/08/27 02:25:40;;;;;;;5.50;1.95;;;;;;;;;;4998396;28;94115;-73
2022/08/27 02:28:06;;;;;;;3.97;1.92;;;;;;;;;;4995862;28;92439;-73
2022/08/27 02:30:33;;;;;;;8.75;1.90;;;;;;;;;;5013713;28;93464;-73
2022/08/27 02:33:01;;;;;;;7.82;2.38;;;;;;;;;;5005884;28;93283;-73
2022/08/27 02:35:29;;;;;;;6.13;1.98;;;;;;;;;;5000675;28;92413;-73
2022/08/27 02:37:55;;;;;;;9.25;2.65;;;;;;;;;;4996249;28;93273;-73
2022/08/27 02:40:22;;;;;;;10.20;2.53;;;;;;;;;;4994298;28;93798;-73
2022/08/27 02:42:49;;;;;;;3.55;1.95;;;;;;;;;;4997412;28;92471;-73
2022/08/27 02:45:16;;;;;;;5.65;2.20;;;;;;;;;;4994000;28;94955;-73
2022/08/27 02:47:42;;;;;;;10.15;2.40;;;;;;;;;;5003107;28;93981;-73
2022/08/27 02:50:09;;;;;;;13.45;2.40;;;;;;;;;;5002766;28;93255;-73
2022/08/27 02:52:35;;;;;;;7.10;2.42;;;;;;;;;;4995414;28;93409;-73
2022/08/27 02:55:03;;;;;;;4.40;1.90;;;;;;;;;;4996958;28;92520;-73
2022/08/27 02:57:30;;;;;;;7.47;2.72;;;;;;;;;;4994858;28;93123;-73
2022/08/27 03:00:03;;;;;;;7.43;2.85;;;;;;;;;;4995341;28;93061;-73
2022/08/27 03:02:29;;;;;;;7.28;2.38;;;;;;;;;;5001999;28;91766;-73
2022/08/27 03:04:56;;;;;;;4.70;2.33;;;;;;;;;;5000393;28;93306;-73
2022/08/27 03:07:23;;;;;;;6.97;2.33;;;;;;;;;;4997683;28;94211;-73
2022/08/27 03:09:50;;;;;;;7.93;2.50;;;;;;;;;;4992423;28;96771;-73
2022/08/27 03:12:16;;;;;;;8.23;3.20;;;;;;;;;;4995103;28;93924;-73
2022/08/27 03:14:43;;;;;;;7.00;2.05;;;;;;;;;;4995514;28;92504;-73
2022/08/27 03:19:54;;;;;;;8.40;2.60;;;;;;;;;;4994685;28;94105;-73
2022/08/27 03:22:21;;;;;;;6.80;2.50;;;;;;;;;;4998171;28;92900;-73
2022/08/27 03:24:47;;;;;;;7.72;2.75;;;;;;;;;;4998061;28;93992;-73
2022/08/27 03:27:14;;;;;;;6.88;2.75;;;;;;;;;;4995268;28;93907;-73
2022/08/27 03:29:40;;;;;;;8.55;2.47;;;;;;;;;;4998051;28;93905;-73
2022/08/27 03:32:06;;;;;;;4.97;2.45;;;;;;;;;;4994822;28;94173;-73
2022/08/27 03:34:33;;;;;;;5.47;2.85;;;;;;;;;;4993684;28;95198;-73
2022/08/27 03:37:00;;;;;;;6.70;2.45;;;;;;;;;;4994622;28;95337;-73
2022/08/27 03:39:26;;;;;;;10.80;3.25;;;;;;;;;;4994379;28;93109;-74
2022/08/27 03:41:53;;;;;;;9.23;2.78;;;;;;;;;;4999588;28;93777;-73
2022/08/27 03:44:23;;;;;;;7.10;2.58;;;;;;;;;;4994521;28;93305;-73
2022/08/27 03:46:50;;;;;;;5.95;2.92;;;;;;;;;;5000323;28;94278;-73
2022/08/27 03:49:17;;;;;;;5.97;2.63;;;;;;;;;;5013820;28;92499;-73
2022/08/27 03:51:47;;;;;;;5.10;2.55;;;;;;;;;;5016050;28;92910;-73
2022/08/27 03:54:13;;;;;;;7.30;2.60;;;;;;;;;;5012206;28;92469;-73
2022/08/27 03:56:40;;;;;;;4.50;2.50;;;;;;;;;;5000051;28;93817;-74
2022/08/27 03:59:07;;;;;;;5.60;2.55;;;;;;;;;;4995962;28;95948;-74
2022/08/27 04:01:33;;;;;;;15.07;3.90;;;;;;;;;;4988827;28;92506;-74
2022/08/27 04:04:00;;;;;;;8.13;2.67;;;;;;;;;;4988608;28;93074;-73
2022/08/27 04:06:27;;;;;;;4.75;2.78;;;;;;;;;;4993888;28;94171;-73
2022/08/27 04:08:53;;;;;;;9.32;2.95;;;;;;;;;;4998864;28;94553;-73
2022/08/27 04:11:20;;;;;;;11.45;3.08;;;;;;;;;;4993458;28;93273;-73
2022/08/27 04:13:47;;;;;;;7.20;2.67;;;;;;;;;;4997486;28;93634;-74
2022/08/27 04:16:13;;;;;;;8.95;2.47;;;;;;;;;;4998869;28;94099;-73
2022/08/27 04:18:39;;;;;;;8.85;3.00;;;;;;;;;;4993872;28;94271;-73
2022/08/27 04:21:10;;;;;;;5.85;2.20;;;;;;;;;;4994151;28;93205;-73
2022/08/27 04:23:38;;;;;;;5.65;2.38;;;;;;;;;;4992458;28;94955;-73
2022/08/27 04:26:05;;;;;;;9.02;2.63;;;;;;;;;;4995847;28;93381;-73
2022/08/27 04:28:31;;;;;;;3.83;2.13;;;;;;;;;;4993624;28;92411;-73
2022/08/27 04:31:04;;;;;;;4.82;2.70;;;;;;;;;;4995294;28;93252;-73
2022/08/27 04:33:31;;;;;;;9.02;3.78;;;;;;;;;;4996550;28;94073;-73
2022/08/27 04:35:58;;;;;;;8.27;2.88;;;;;;;;;;4996968;28;92339;-73
2022/08/27 04:38:24;;;;;;;5.53;2.58;;;;;;;;;;4994802;28;94201;-73
2022/08/27 04:43:36;;;;;;;10.60;2.58;;;;;;;;;;4994080;28;92324;-73
2022/08/27 04:46:02;;;;;;;8.63;2.67;;;;;;;;;;4994177;28;93494;-73
2022/08/27 04:48:29;;;;;;;8.45;2.63;;;;;;;;;;4991463;28;94957;-73
2022/08/27 04:50:55;;;;;;;7.65;2.70;;;;;;;;;;4993002;28;95356;-73
2022/08/27 04:53:22;;;;;;;8.32;2.88;;;;;;;;;;4999440;28;94156;-73
2022/08/27 04:55:52;;;;;;;5.60;2.53;;;;;;;;;;4994468;28;92530;-73
2022/08/27 04:58:19;;;;;;;4.25;2.65;;;;;;;;;;4990777;28;93998;-73
2022/08/27 05:00:47;;;;;;;4.40;2.40;;;;;;;;;;4992410;28;92861;-73
2022/08/27 05:03:15;;;;;;;9.63;2.63;;;;;;;;;;4994006;28;93923;-73
2022/08/27 05:05:42;;;;;;;6.53;2.90;;;;;;;;;;4997377;28;92426;-73
2022/08/27 05:08:11;;;;;;;6.47;2.33;;;;;;;;;;5002168;28;95408;-73
2022/08/27 05:10:42;;;;;;;6.72;2.53;;;;;;;;;;4996590;28;94430;-73
2022/08/27 05:13:09;;;;;;;4.40;2.42;;;;;;;;;;4995895;28;96638;-73
2022/08/27 05:15:35;;;;;;;4.72;2.95;;;;;;;;;;4996089;28;92882;-73
2022/08/27 05:18:02;;;;;;;10.15;3.00;;;;;;;;;;4997097;28;93000;-73
2022/08/27 05:20:30;;;;;;;8.85;3.17;;;;;;;;;;5000528;28;93527;-73
2022/08/27 05:22:56;;;;;;;6.10;2.85;;;;;;;;;;4999159;28;93852;-74
2022/08/27 05:25:23;;;;;;;4.95;2.63;;;;;;;;;;4997618;28;93561;-73
2022/08/27 05:27:49;;;;;;;6.72;3.03;;;;;;;;;;4996723;28;92512;-73
2022/08/27 05:30:16;;;;;;;6.97;2.47;;;;;;;;;;4996737;28;93000;-73
2022/08/27 05:32:43;;;;;;;4.95;2.92;;;;;;;;;;4996648;28;93515;-73
2022/08/27 05:35:09;;;;;;;4.88;3.10;;;;;;;;;;4997105;28;92490;-73
2022/08/27 05:37:41;;;;;;;5.25;2.38;;;;;;;;;;4994270;28;94781;-73
2022/08/27 05:40:08;;;;;;;6.78;3.10;;;;;;;;;;4998080;28;94119;-73
2022/08/27 05:42:34;;;;;;;6.55;2.60;;;;;;;;;;4994390;28;93295;-73
2022/08/27 05:45:01;;;;;;;5.65;2.67;;;;;;;;;;4995517;28;95046;-73
2022/08/27 05:47:28;;;;;;;6.53;2.70;;;;;;;;;;4996564;28;92426;-73
2022/08/27 05:49:54;;;;;;;10.45;3.90;;;;;;;;;;4995186;28;93938;-74
2022/08/27 05:52:20;;;;;;;10.40;2.80;;;;;;;;;;5000417;28;94420;-73
2022/08/27 05:54:47;;;;;;;7.10;3.38;;;;;;;;;;5010451;28;91748;-73
2022/08/27 05:57:13;;;;;;;9.05;3.25;;;;;;;;;;4998248;28;94191;-73
2022/08/27 06:02:24;;;;;;;4.45;3.08;;;;;;;;;;4991622;28;94788;-73
2022/08/27 06:04:52;;;;;;;5.68;2.92;;;;;;;;;;4988984;28;93105;-73
2022/08/27 06:07:18;;;;;;;9.02;3.20;;;;;;;;;;5008340;28;92387;-73
2022/08/27 06:09:45;;;;;;;4.93;2.55;;;;;;;;;;5002646;28;93957;-72
2022/08/27 06:12:11;;;;;;;9.10;3.42;;;;;;;;;;4991200;28;93130;-72
2022/08/27 06:14:37;;;;;;;7.85;3.20;;;;;;;;;;4995732;28;92541;-71
2022/08/27 06:17:05;;;;;;;6.50;3.45;;;;;;;;;;4994962;28;94184;-73
2022/08/27 06:19:33;;;;;;;10.98;3.80;;;;;;;;;;4996688;28;92301;-72
2022/08/27 06:22:01;;;;;;;8.63;2.95;;;;;;;;;;4994679;28;92510;-71
2022/08/27 06:24:38;;;;;;;5.97;3.15;;;;;;;;;;4997030;28;94013;-73
2022/08/27 06:27:04;;;;;;;10.98;3.78;;;;;;;;;;4978716;28;94943;-73
2022/08/27 06:29:33;;;;;;;10.27;3.15;;;;;;;;;;4981277;28;95529;-72
2022/08/27 06:32:00;;;;;;;7.15;2.90;;;;;;;;;;4975797;28;94194;-72
2022/08/27 06:34:26;;;;;;;10.93;3.90;;;;;;;;;;4995376;28;93209;-72
2022/08/27 06:36:53;;;;;;;5.88;3.00;;;;;;;;;;4984210;28;94444;-72
2022/08/27 06:39:19;;;;;;;11.35;3.45;;;;;;;;;;4988986;28;94166;-72
2022/08/27 06:41:48;;;;;;;5.38;3.08;;;;;;;;;;4982832;28;92567;-72
2022/08/27 06:44:18;;;;;;;11.35;3.40;;;;;;;;;;4994130;28;94702;-72
2022/08/27 06:46:45;;;;;;;7.78;4.18;;;;;;;;;;4995977;28;94140;-72
2022/08/27 06:49:13;;;;;;;7.35;3.28;;;;;;;;;;4995851;28;93134;-72
2022/08/27 06:51:43;;;;;;;5.93;3.05;;;;;;;;;;4968983;28;96935;-72
2022/08/27 06:54:11;;;;;;;5.88;3.22;;;;;;;;;;4972431;28;94146;-72
2022/08/27 06:56:38;;;;;;;6.05;2.85;;;;;;;;;;4985409;28;93819;-72
2022/08/27 06:59:06;;;;;;;10.43;2.67;;;;;;;;;;4984763;28;94008;-72
2022/08/27 07:01:38;;;;;;;5.35;3.20;;;;;;;;;;4992989;28;92502;-72
2022/08/27 07:04:06;;;;;;;8.18;2.70;;;;;;;;;;4991712;28;92853;-72
2022/08/27 07:06:33;;;;;;;5.25;2.60;;;;;;;;;;4987903;28;96480;-72
2022/08/27 07:08:59;;;;;;;5.05;3.22;;;;;;;;;;4993690;28;91769;-72
2022/08/27 07:11:27;;;;;;;5.97;2.05;;;;;;;;;;4977968;28;94134;-72
2022/08/27 07:13:54;;;;;;;4.70;1.65;;;;;;;;;;4981594;28;92663;-70
2022/08/27 07:16:22;;;;;;;11.25;3.10;;;;;;;;;;4988345;28;94859;-70
2022/08/27 07:18:50;;;;;;;7.32;2.00;;;;;;;;;;4992307;28;94387;-70
2022/08/27 07:21:18;;;;;;;4.55;2.17;;;;;;;;;;4987179;28;92518;-71
2022/08/27 07:23:45;;;;;;;3.80;1.83;;;;;;;;;;4985336;28;92992;-71
2022/08/27 07:26:12;;;;;;;3.55;1.80;;;;;;;;;;4976072;28;94186;-72
2022/08/27 07:28:40;;;;;;;6.60;2.15;;;;;;;;;;4978902;28;92616;-71
2022/08/27 07:31:08;;;;;;;5.05;1.85;;;;;;;;;;4992892;28;93372;-72
2022/08/27 07:33:35;;;;;;;4.63;1.88;;;;;;;;;;4987136;28;93518;-72
2022/08/27 07:36:02;;;;;;;5.30;1.92;;;;;;;;;;4987398;28;93358;-72
2022/08/27 07:38:29;;;;;;;4.07;1.67;;;;;;;;;;4990556;28;94154;-72
2022/08/27 07:40:55;;;;;;;3.88;2.10;;;;;;;;;;4989228;28;94905;-71
2022/08/27 07:46:07;;;;;;;2.83;1.65;;;;;;;;;;4988887;28;94113;-72
2022/08/27 07:48:33;;;;;;;2.67;1.77;;;;;;;;;;4994666;28;92483;-72
2022/08/27 07:51:04;;;;;;;4.22;1.75;;;;;;;;;;4996740;28;94087;-70
2022/08/27 07:53:31;;;;;;;2.53;1.70;;;;;;;;;;4992655;28;92442;-72
2022/08/27 07:56:02;;;;;;;4.47;1.88;;;;;;;;;;4994116;28;93891;-72
2022/08/27 07:58:28;;;;;;;1.58;1.48;;;;;;;;;;4990083;28;93467;-72
2022/08/27 08:00:55;;;;;;;6.22;1.85;;;;;;;;;;4987664;28;93803;-72
2022/08/27 08:03:21;;;;;;;8.63;1.98;;;;;;;;;;4993922;28;93027;-72
2022/08/27 08:05:49;;;;;;;6.70;1.90;;;;;;;;;;4991275;28;96645;-72
2022/08/27 08:08:15;;;;;;;2.40;1.50;;;;;;;;;;4994094;28;92538;-72
2022/08/27 08:10:42;;;;;;;9.45;1.90;;;;;;;;;;4987376;28;93730;-72
2022/08/27 08:13:08;;;;;;;2.55;1.60;;;;;;;;;;4991971;28;94193;-72
2022/08/27 08:15:35;;;;;;;7.32;1.63;;;;;;;;;;4987510;28;94172;-72
2022/08/27 08:18:01;;;;;;;3.95;1.75;;;;;;;;;;4993223;28;94745;-72
2022/08/27 08:20:27;;;;;;;6.20;1.38;;;;;;;;;;4993389;28;92870;-72
2022/08/27 08:23:14;;;;;;;4.20;1.80;;;;;;;;;;4990323;28;93951;-73
2022/08/27 08:25:41;;;;;;;4.82;1.95;;;;;;;;;;4992753;28;94149;-73
2022/08/27 08:28:07;;;;;;;2.33;1.52;;;;;;;;;;4992567;28;93795;-73
2022/08/27 08:30:34;;;;;;;5.35;2.00;;;;;;;;;;4992563;28;94778;-72
2022/08/27 08:33:01;;;;;;;6.97;1.65;;;;;;;;;;4989740;28;94423;-72
2022/08/27 08:35:27;;;;;;;3.50;1.90;;;;;;;;;;4993669;28;92462;-72
2022/08/27 08:38:06;;;;;;;4.72;1.95;;;;;;;;;;4993160;28;93513;-71
2022/08/27 08:40:35;;;;;;;5.15;1.38;;;;;;;;;;4987665;28;92500;-71
2022/08/27 08:43:04;;;;;;;5.28;1.50;;;;;;;;;;4991452;28;93868;-70
2022/08/27 08:45:33;;;;;;;2.03;1.30;;;;;;;;;;4996855;28;94217;-70
2022/08/27 08:47:59;;;;;;;5.70;1.67;;;;;;;;;;4995815;28;91672;-70
2022/08/27 08:50:29;;;;;;;3.28;1.40;;;;;;;;;;4998325;28;92707;-72
2022/08/27 08:52:59;;;;;;;12.18;2.33;;;;;;;;;;4990084;28;93757;-72
2022/08/27 08:55:46;;;;;;;2.13;1.25;;;;;;;;;;4988492;28;94835;-71
2022/08/27 08:58:15;;;;;;;4.28;1.73;;;;;;;;;;4995816;28;95537;-71
2022/08/27 09:00:42;;;;;;;2.50;1.40;;;;;;;;;;4994783;28;94052;-71
2022/08/27 09:03:11;;;;;;;3.50;2.13;;;;;;;;;;4997636;28;93970;-71
2022/08/27 09:05:39;;;;;;;2.22;1.38;;;;;;;;;;4994684;28;94316;-72
2022/08/27 09:08:05;;;;;;;2.97;1.48;;;;;;;;;;4986681;28;92769;-73
2022/08/27 09:10:57;;;;;;;7.00;1.83;;;;;;;;;;4990896;28;92801;-73
2022/08/27 09:13:29;;;;;;;4.47;1.53;;;;;;;;;;4983229;28;94316;-73
2022/08/27 09:15:57;;;;;;;3.42;1.70;;;;;;;;;;4989125;28;92945;-73
2022/08/27 09:18:23;;;;;;;6.63;1.40;;;;;;;;;;4994794;28;92845;-73
2022/08/27 09:21:22;;;;;;;6.07;1.95;;;;;;;;;;4990435;28;96647;-74
2022/08/27 09:23:53;;;;;;;5.03;1.80;;;;;;;;;;4988335;28;95048;-73
2022/08/27 09:26:21;;;;;;;3.20;1.33;;;;;;;;;;4994548;28;93478;-72
2022/08/27 09:31:35;;;;;;;4.00;1.45;;;;;;;;;;4997017;28;93123;-72
2022/08/27 09:34:03;;;;;;;3.35;1.35;;;;;;;;;;4997380;28;93497;-72
2022/08/27 09:36:30;;;;;;;12.65;2.13;;;;;;;;;;4995938;28;92384;-72
2022/08/27 09:38:57;;;;;;;2.45;1.40;;;;;;;;;;4996878;28;93295;-72
2022/08/27 09:41:27;;;;;;;7.70;2.10;;;;;;;;;;4997738;28;94119;-73
2022/08/27 09:43:57;;;;;;;11.60;2.13;;;;;;;;;;4998234;28;92547;-73
2022/08/27 09:46:24;;;;;;;3.95;1.90;;;;;;;;;;4995304;28;95845;-72
2022/08/27 09:48:53;;;;;;;5.05;1.98;;;;;;;;;;4994999;28;92922;-73
2022/08/27 09:51:22;;;;;;;4.13;1.55;;;;;;;;;;5001938;28;93975;-73
2022/08/27 09:53:54;;;;;;;4.93;1.70;;;;;;;;;;4996242;28;93021;-73
2022/08/27 09:56:32;;;;;;;2.30;1.37;;;;;;;;;;5000026;28;93095;-73
2022/08/27 09:59:06;;;;;;;3.90;1.42;;;;;;;;;;5002989;28;93594;-73
2022/08/27 10:01:47;;;;;;;8.80;1.85;;;;;;;;;;5013119;28;94107;-73
2022/08/27 10:04:15;;;;;;;3.42;1.48;;;;;;;;;;5000343;28;91620;-73
2022/08/27 10:06:46;;;;;;;4.20;1.75;;;;;;;;;;5004917;28;94206;-73
2022/08/27 10:09:16;;;;;;;3.65;1.50;;;;;;;;;;4997465;28;92493;-73
2022/08/27 10:11:49;;;;;;;2.60;1.33;;;;;;;;;;4994886;28;95483;-73
2022/08/27 10:14:25;;;;;;;2.15;1.48;;;;;;;;;;5002522;28;94025;-73
2022/08/27 10:17:04;;;;;;;8.30;1.52;;;;;;;;;;4989928;28;92643;-73
2022/08/27 10:19:36;;;;;;;2.03;1.50;;;;;;;;;;4997051;28;92672;-73
2022/08/27 10:22:27;;;;;;;8.77;2.30;;;;;;;;;;4995249;28;93588;-73
2022/08/27 10:25:02;;;;;;;3.00;1.27;;;;;;;;;;4996245;28;92441;-73
2022/08/27 10:27:29;;;;;;;8.43;1.70;;;;;;;;;;4999031;28;94029;-73
2022/08/27 10:29:58;;;;;;;4.60;1.75;;;;;;;;;;4997890;28;93021;-73
2022/08/27 10:32:56;;;;;;;8.38;1.70;;;;;;;;;;5007453;28;92561;-70
2022/08/27 10:35:34;;;;;;;6.05;1.50;;;;;;;;;;4988290;28;93615;-69
2022/08/27 10:38:23;;;;;;;4.60;2.03;;;;;;;;;;4994781;28;94854;-70
2022/08/27 10:41:13;;;;;;;6.07;2.13;;;;;;;;;;4995202;28;95698;-71
2022/08/27 10:43:47;;;;;;;4.68;1.92;;;;;;;;;;4995044;28;93552;-72
2022/08/27 10:46:16;;;;;;;6.13;1.40;;;;;;;;;;4995919;28;93845;-72
2022/08/27 10:48:45;;;;;;;4.15;1.70;;;;;;;;;;4995337;28;93837;-72
2022/08/27 10:51:24;;;;;;;7.13;1.63;;;;;;;;;;5000057;28;93389;-72
2022/08/27 10:54:09;;;;;;;3.50;1.27;;;;;;;;;;4989891;28;93821;-72
2022/08/27 10:56:39;;;;;;;5.40;1.40;;;;;;;;;;4996158;28;93376;-72
2022/08/27 10:59:11;;;;;;;9.30;2.05;;;;;;;;;;4991789;28;92531;-72
2022/08/27 11:01:53;;;;;;;10.40;1.95;;;;;;;;;;4995433;28;92836;-72
2022/08/27 11:04:29;;;;;;;3.65;1.80;;;;;;;;;;4987662;28;96783;-72
2022/08/27 11:07:03;;;;;;;6.50;2.05;;;;;;;;;;4994672;28;93097;-72
2022/08/27 11:09:35;;;;;;;6.15;2.00;;;;;;;;;;4995759;28;94655;-72
2022/08/27 11:12:02;;;;;;;;;;;;;;;;;;4993852;28;93868;-72
2022/08/27 11:14:49;;;;;;;8.52;1.83;;;;;;;;;;4997420;28;118347;-72
2022/08/27 11:17:19;;;;;;;4.78;1.48;;;;;;;;;;4989192;28;93626;-72
2022/08/27 11:20:01;;;;;;;3.30;1.50;;;;;;;;;;4988391;28;92496;-72
2022/08/27 11:22:46;;;;;;;3.15;1.50;;;;;;;;;;4994726;28;92943;-72
2022/08/27 11:25:25;;;;;;;1.50;1.10;;;;;;;;;;4991943;28;93962;-72
2022/08/27 11:27:52;;;;;;;6.68;1.80;;;;;;;;;;4984004;28;92926;-72
2022/08/27 11:30:27;;;;;;;10.63;2.35;;;;;;;;;;4987411;28;94762;-71
2022/08/27 11:33:12;;;;;;;4.80;1.67;;;;;;;;;;4988498;28;93935;-71
2022/08/27 11:35:58;;;;;;;14.80;1.60;;;;;;;;;;4988824;28;92741;-71
2022/08/27 11:38:36;;;;;;;3.50;1.27;;;;;;;;;;4996076;28;93933;-72
2022/08/27 11:41:22;;;;;;;6.78;1.63;;;;;;;;;;4994997;28;92471;-72
2022/08/27 11:43:48;;;;;;;3.47;1.73;;;;;;;;;;4989377;28;94023;-71
2022/08/27 11:46:25;;;;;;;5.47;1.60;;;;;;;;;;4990689;28;94275;-72
2022/08/27 11:48:56;;;;;;;7.25;2.53;;;;;;;;;;4994167;28;91965;-72
2022/08/27 11:51:33;;;;;;;8.02;2.08;;;;;;;;;;4993172;28;93249;-71
2022/08/27 11:54:09;;;;;;;4.38;1.70;;;;;;;;;;4993950;28;94166;-72
2022/08/27 11:56:40;;;;;;;4.22;1.65;;;;;;;;;;4986665;28;96140;-71
2022/08/27 11:59:21;;;;;;;3.75;1.52;;;;;;;;;;4990617;28;95384;-72
2022/08/27 12:01:49;;;;;;;4.43;1.83;;;;;;;;;;4988141;28;92517;-72
2022/08/27 12:04:31;;;;;;;3.67;1.70;;;;;;;;;;4993757;28;93918;-72
2022/08/27 12:06:57;;;;;;;;;;;;;;;;;;4986352;28;92760;-72
2022/08/27 12:09:24;;;;;;;4.18;1.50;;;;;;;;;;4994436;28;118266;-72
2022/08/27 12:12:07;;;;;;;3.38;1.60;;;;;;;;;;4992648;28;93264;-72
2022/08/27 12:14:42;;;;;;;7.30;1.85;;;;;;;;;;4988826;28;93661;-70
2022/08/27 12:17:08;;;;;;;5.43;1.60;;;;;;;;;;4993901;28;92532;-71
2022/08/27 12:19:47;;;;;;;7.57;1.45;;;;;;;;;;4992990;28;93311;-71
2022/08/27 12:22:19;;;;;;;5.05;1.38;;;;;;;;;;4996090;28;95620;-71
2022/08/27 12:24:52;;;;;;;6.93;2.83;;;;;;;;;;4993576;28;95486;-71
2022/08/27 12:27:23;;;;;;;4.90;2.08;;;;;;;;;;4988489;28;93930;-70
2022/08/27 12:29:49;;;;;;;3.42;1.60;;;;;;;;;;4994133;28;92482;-73
2022/08/27 12:32:25;;;;;;;3.05;1.38;;;;;;;;;;4992022;28;93944;-72
2022/08/27 12:34:54;;;;;;;5.18;1.80;;;;;;;;;;4993948;28;94210;-73
2022/08/27 12:37:27;;;;;;;2.00;1.25;;;;;;;;;;4994494;28;92393;-73
2022/08/27 12:39:56;;;;;;;5.18;1.80;;;;;;;;;;4992433;28;93917;-73
2022/08/27 12:42:22;;;;;;;3.85;1.50;;;;;;;;;;4994018;28;94016;-73
2022/08/27 12:44:53;;;;;;;6.28;1.88;;;;;;;;;;4996552;28;92524;-73
2022/08/27 12:47:19;;;;;;;3.50;1.13;;;;;;;;;;4990513;28;96628;-73
2022/08/27 12:49:50;;;;;;;4.35;1.58;;;;;;;;;;4994194;28;93993;-73
2022/08/27 12:52:39;;;;;;;3.63;1.60;;;;;;;;;;4991925;28;93772;-73
2022/08/27 12:55:09;;;;;;;3.50;1.50;;;;;;;;;;4988193;28;93601;-71
2022/08/27 12:57:56;;;;;;;6.20;1.80;;;;;;;;;;4994148;28;93368;-72
2022/08/27 13:00:23;;;;;;;7.00;1.73;;;;;;;;;;4986660;28;93362;-71
2022/08/27 13:03:07;;;;;;;6.00;1.58;;;;;;;;;;4993573;28;94285;-73
2022/08/27 13:05:38;;;;;;;6.03;1.30;;;;;;;;;;4991922;28;91823;-71
2022/08/27 13:08:17;;;;;;;2.95;1.30;;;;;;;;;;4994880;28;93446;-71
2022/08/27 13:10:44;;;;;;;4.75;1.60;;;;;;;;;;4993582;28;92438;-72
2022/08/27 13:13:14;;;;;;;6.22;1.65;;;;;;;;;;4990305;28;94982;-71
2022/08/27 13:15:43;;;;;;;5.95;1.95;;;;;;;;;;4993222;28;95887;-71
2022/08/27 13:18:10;;;;;;;7.15;1.95;;;;;;;;;;4993183;28;92436;-71
2022/08/27 13:20:39;;;;;;;4.07;1.63;;;;;;;;;;4989303;28;93006;-71
2022/08/27 13:23:07;;;;;;;6.75;1.80;;;;;;;;;;4981526;28;93552;-73
2022/08/27 13:25:34;;;;;;;5.35;1.67;;;;;;;;;;4976745;28;93243;-71
2022/08/27 13:28:14;;;;;;;4.93;2.17;;;;;;;;;;4993472;28;95666;-71
2022/08/27 13:30:44;;;;;;;6.28;1.73;;;;;;;;;;4993101;28;92243;-71
2022/08/27 13:33:16;;;;;;;3.75;1.63;;;;;;;;;;4991111;28;93433;-71
2022/08/27 13:35:43;;;;;;;12.65;2.10;;;;;;;;;;4988642;28;93415;-71
2022/08/27 13:38:11;;;;;;;5.78;1.85;;;;;;;;;;4994025;28;94795;-71
2022/08/27 13:40:50;;;;;;;4.50;1.80;;;;;;;;;;5028833;27;94390;-71
2022/08/27 13:43:16;;;;;;;3.17;1.50;;;;;;;;;;4988973;28;94192;-71
2022/08/27 13:45:47;;;;;;;6.93;2.00;;;;;;;;;;4996279;28;93188;-71
2022/08/27 13:48:15;;;;;;;7.28;1.95;;;;;;;;;;4994751;28;93934;-71
2022/08/27 13:50:46;;;;;;;5.82;1.52;;;;;;;;;;4996295;28;94072;-71
2022/08/27 13:56:02;;;;;;;5.70;1.50;;;;;;;;;;4994510;28;93562;-71
2022/08/27 13:58:31;;;;;;;6.55;1.85;;;;;;;;;;4996753;28;92445;-71
2022/08/27 14:01:11;;;;;;;5.75;1.60;;;;;;;;;;4996087;28;95000;-72
2022/08/27 14:03:46;;;;;;;5.68;1.55;;;;;;;;;;4993752;28;96408;-71
2022/08/27 14:06:44;;;;;;;6.05;1.60;;;;;;;;;;4996150;28;92528;-71
2022/08/27 14:09:23;;;;;;;3.58;1.75;;;;;;;;;;4972994;28;94151;-71
2022/08/27 14:11:57;;;;;;;5.78;1.60;;;;;;;;;;4994013;28;94044;-71
2022/08/27 14:14:23;;;;;;;7.80;1.85;;;;;;;;;;4997889;28;92422;-71
2022/08/27 14:16:57;;;;;;;3.08;1.70;;;;;;;;;;4994653;28;94281;-71
2022/08/27 14:19:25;;;;;;;6.03;1.38;;;;;;;;;;4996203;28;92554;-71
2022/08/27 14:21:52;;;;;;;2.80;1.88;;;;;;;;;;4995191;28;92783;-71
2022/08/27 14:24:18;;;;;;;3.50;1.48;;;;;;;;;;4995318;28;93131;-69
2022/08/27 14:26:49;;;;;;;5.22;1.85;;;;;;;;;;4993899;28;92573;-69
2022/08/27 14:29:16;;;;;;;9.20;1.33;;;;;;;;;;4981810;28;94960;-68
2022/08/27 14:31:43;;;;;;;2.55;1.00;;;;;;;;;;4992825;28;94172;-69
2022/08/27 14:34:10;;;;;;;3.45;1.50;;;;;;;;;;4994995;28;92848;-68
2022/08/27 14:36:37;;;;;;;8.73;1.83;;;;;;;;;;4991926;28;92995;-71
2022/08/27 14:39:04;;;;;;;6.03;1.90;;;;;;;;;;4978288;28;94916;-71
2022/08/27 14:41:32;;;;;;;4.57;1.63;;;;;;;;;;4975924;28;94013;-71
2022/08/27 14:43:58;;;;;;;5.22;1.85;;;;;;;;;;4979483;28;94059;-70
2022/08/27 14:46:26;;;;;;;6.97;1.88;;;;;;;;;;4977677;28;92203;-71
2022/08/27 14:48:54;;;;;;;5.35;1.40;;;;;;;;;;4991969;28;93693;-71
2022/08/27 14:51:27;;;;;;;3.80;1.48;;;;;;;;;;4990098;28;93565;-71
2022/08/27 14:53:54;;;;;;;3.33;1.30;;;;;;;;;;4990168;28;94871;-71
2022/08/27 14:56:21;;;;;;;4.45;1.83;;;;;;;;;;4990181;28;95633;-71
2022/08/27 14:58:47;;;;;;;4.18;1.52;;;;;;;;;;4994376;28;93453;-71
2022/08/27 15:01:15;;;;;;;4.53;1.50;;;;;;;;;;4991550;28;92968;-71
2022/08/27 15:03:43;;;;;;;6.53;1.67;;;;;;;;;;4983210;28;93298;-72
2022/08/27 15:06:09;;;;;;;4.30;1.77;;;;;;;;;;4987487;28;93806;-72
2022/08/27 15:08:36;;;;;;;5.22;1.50;;;;;;;;;;4980895;28;94639;-72
2022/08/27 15:11:05;;;;;;;5.32;1.80;;;;;;;;;;4988756;28;92654;-71
2022/08/27 15:13:31;;;;;;;5.95;2.08;;;;;;;;;;4974451;28;93139;-72
2022/08/27 15:15:57;;;;;;;7.25;1.40;;;;;;;;;;4973971;28;93197;-71